Time;durP1;ratioP1;P1;durP2;ratioP2;P2;SDS_P1;SDS_P2;PMS_P1;PMS_P2;Temp;Humidity;BMP_temperature;BMP_pressure;BME280_temperature;BME280_humidity;BME280_pressure;Samples;Min_cycle;Max_cycle;Signal;HPM_P1;HPM_P2
2023/08/31 00:50:10;;;;;;;14.23;4.13;;;11.30;99.90;;;;;;5183030;23;20074;-69
2023/08/31 00:52:36;;;;;;;21.50;4.70;;;11.30;99.90;;;;;;5001465;28;20062;-69
2023/08/31 00:55:05;;;;;;;16.88;4.80;;;11.30;99.90;;;;;;4989991;28;20051;-70
2023/08/31 00:57:30;;;;;;;14.35;4.40;;;11.30;99.90;;;;;;4995183;28;20077;-71
2023/08/31 00:59:56;;;;;;;17.08;4.88;;;11.30;99.90;;;;;;4994295;28;20479;-70
2023/08/31 01:02:34;;;;;;;17.17;5.20;;;11.30;99.90;;;;;;4994582;28;20053;-73
2023/08/31 01:05:13;;;;;;;14.02;4.78;;;11.30;99.90;;;;;;4993469;28;20042;-70
2023/08/31 01:07:52;;;;;;;12.52;4.07;;;11.30;99.90;;;;;;4995900;28;20051;-71
2023/08/31 01:10:31;;;;;;;14.45;4.47;;;11.30;99.90;;;;;;4995842;28;20054;-70
2023/08/31 01:13:11;;;;;;;14.60;4.30;;;11.20;99.90;;;;;;4995280;28;20387;-70
2023/08/31 01:15:39;;;;;;;14.73;4.32;;;11.20;99.90;;;;;;4993781;28;20049;-71
2023/08/31 01:18:08;;;;;;;12.85;4.70;;;11.20;99.90;;;;;;4994041;28;20043;-70
2023/08/31 01:21:10;;;;;;;14.32;4.80;;;11.20;99.90;;;;;;4995786;28;20046;-71
2023/08/31 01:23:53;;;;;;;17.65;5.60;;;11.20;99.90;;;;;;4978053;28;20490;-71
2023/08/31 01:26:19;;;;;;;23.52;5.70;;;11.20;99.90;;;;;;4993829;28;20125;-72
2023/08/31 01:28:46;;;;;;;15.32;5.32;;;11.20;99.90;;;;;;4993847;28;20397;-69
2023/08/31 01:31:12;;;;;;;15.43;5.15;;;11.20;99.90;;;;;;4994795;28;20534;-71
2023/08/31 01:33:38;;;;;;;14.50;5.40;;;11.20;99.90;;;;;;4995421;28;20089;-71
2023/08/31 01:36:28;;;;;;;19.23;5.80;;;11.10;99.90;;;;;;4991695;28;20117;-70
2023/08/31 01:39:08;;;;;;;16.40;5.70;;;11.10;99.90;;;;;;4994423;28;20056;-77
2023/08/31 01:41:35;;;;;;;20.58;6.53;;;11.00;99.90;;;;;;4979035;28;20061;-71
2023/08/31 01:44:02;;;;;;;;;;;11.00;99.90;;;;;;4995030;28;20063;-72
2023/08/31 01:46:29;;;;;;;16.48;5.60;;;11.10;99.90;;;;;;4993419;28;19929;-70
2023/08/31 01:48:55;;;;;;;20.52;5.85;;;11.00;99.90;;;;;;4994926;28;20050;-78
2023/08/31 01:51:20;;;;;;;19.35;5.95;;;11.00;99.90;;;;;;4961428;28;20516;-70
2023/08/31 01:53:46;;;;;;;16.35;6.30;;;10.90;99.90;;;;;;4994918;28;20062;-71
2023/08/31 01:56:13;;;;;;;13.80;5.80;;;10.90;99.90;;;;;;4991176;28;20121;-71
2023/08/31 01:58:39;;;;;;;19.17;5.57;;;10.90;99.90;;;;;;4992985;28;20405;-71
2023/08/31 02:01:05;;;;;;;24.80;7.25;;;10.90;99.90;;;;;;4993074;28;20125;-72
2023/08/31 02:03:30;;;;;;;17.92;6.47;;;10.80;99.90;;;;;;4994983;28;20398;-70
2023/08/31 02:05:57;;;;;;;15.10;6.88;;;10.80;99.90;;;;;;4993198;28;20403;-80
2023/08/31 02:08:23;;;;;;;17.65;7.13;;;10.80;99.90;;;;;;4993327;28;20097;-72
2023/08/31 02:10:48;;;;;;;23.75;7.93;;;10.80;99.90;;;;;;4994572;28;20050;-71
2023/08/31 02:13:15;;;;;;;19.00;7.82;;;10.80;99.90;;;;;;4994361;28;20414;-71
2023/08/31 02:15:41;;;;;;;;;;;10.80;99.90;;;;;;4992846;28;20101;-71
2023/08/31 02:18:08;;;;;;;20.17;7.13;;;10.80;99.90;;;;;;4977027;28;20334;-70
2023/08/31 02:20:34;;;;;;;21.17;7.97;;;10.70;99.90;;;;;;4993915;28;20113;-71
2023/08/31 02:23:00;;;;;;;24.88;8.20;;;10.70;99.90;;;;;;4994255;28;20047;-78
2023/08/31 02:25:27;;;;;;;23.95;8.95;;;10.70;99.90;;;;;;4993398;28;20384;-71
2023/08/31 02:27:54;;;;;;;22.27;9.10;;;10.60;99.90;;;;;;4993393;28;20105;-71
2023/08/31 02:30:19;;;;;;;19.20;8.43;;;10.60;99.90;;;;;;4990832;28;20390;-71
2023/08/31 02:32:45;;;;;;;19.75;9.00;;;10.60;99.90;;;;;;4994224;28;20133;-71
2023/08/31 02:35:12;;;;;;;23.10;9.65;;;10.60;99.90;;;;;;4992779;28;20042;-71
2023/08/31 02:37:38;;;;;;;25.17;10.27;;;10.60;99.90;;;;;;4994518;28;20058;-72
2023/08/31 02:40:06;;;;;;;25.05;9.88;;;10.60;99.90;;;;;;4993735;28;20048;-75
2023/08/31 02:42:31;;;;;;;24.77;10.90;;;10.50;99.90;;;;;;4991841;28;20413;-72
2023/08/31 02:44:57;;;;;;;25.42;10.80;;;10.60;99.90;;;;;;4994052;28;20054;-71
2023/08/31 02:47:23;;;;;;;26.58;10.80;;;10.50;99.90;;;;;;4993671;28;20446;-71
2023/08/31 02:49:48;;;;;;;23.83;10.40;;;10.50;99.90;;;;;;4994167;28;20049;-72
2023/08/31 02:52:14;;;;;;;29.55;11.68;;;10.50;99.90;;;;;;4992293;28;20362;-73
2023/08/31 02:54:40;;;;;;;26.77;13.07;;;10.50;99.90;;;;;;4994121;28;20064;-71
2023/08/31 02:57:06;;;;;;;22.73;10.13;;;10.50;99.90;;;;;;4993664;28;20054;-72
2023/08/31 02:59:35;;;;;;;28.08;10.65;;;10.50;99.90;;;;;;4993841;28;20081;-71
2023/08/31 03:02:02;;;;;;;26.77;11.70;;;10.50;99.90;;;;;;4991048;28;20046;-72
2023/08/31 03:04:28;;;;;;;;;;;10.50;99.90;;;;;;4991948;28;20382;-72
2023/08/31 03:06:53;;;;;;;24.70;11.23;;;10.40;99.90;;;;;;4992536;28;19930;-71
2023/08/31 03:09:20;;;;;;;24.20;10.85;;;10.40;99.90;;;;;;4992172;28;20398;-72
2023/08/31 03:11:46;;;;;;;24.15;10.57;;;10.50;99.90;;;;;;4993663;28;20046;-72
2023/08/31 03:14:11;;;;;;;23.60;10.68;;;10.40;99.90;;;;;;4991659;28;20402;-71
2023/08/31 03:16:37;;;;;;;25.38;10.75;;;10.40;99.90;;;;;;4992876;28;20046;-72
2023/08/31 03:19:03;;;;;;;20.08;10.25;;;10.40;99.90;;;;;;4992649;28;20158;-71
2023/08/31 03:21:29;;;;;;;26.27;10.17;;;10.40;99.90;;;;;;4991012;28;20062;-72
2023/08/31 03:23:55;;;;;;;25.15;10.43;;;10.40;99.90;;;;;;4992746;28;20189;-71
2023/08/31 03:26:20;;;;;;;20.20;9.07;;;10.40;99.90;;;;;;4991915;28;20421;-71
2023/08/31 03:28:46;;;;;;;22.70;10.82;;;10.40;99.90;;;;;;4993221;28;20561;-73
2023/08/31 03:31:12;;;;;;;22.50;10.93;;;10.40;99.90;;;;;;4991462;28;20053;-73
2023/08/31 03:33:38;;;;;;;20.80;9.48;;;10.40;99.90;;;;;;4993427;28;20148;-72
2023/08/31 03:36:04;;;;;;;22.65;10.57;;;10.40;99.90;;;;;;4991932;28;20100;-72
2023/08/31 03:38:31;;;;;;;19.60;9.02;;;10.50;99.90;;;;;;4991568;28;20049;-72
2023/08/31 03:40:57;;;;;;;22.98;10.15;;;10.50;99.90;;;;;;4990943;28;20125;-74
2023/08/31 03:43:23;;;;;;;18.75;9.35;;;10.50;99.90;;;;;;4990679;28;20514;-74
2023/08/31 03:45:55;;;;;;;19.23;9.90;;;10.50;99.90;;;;;;4993192;28;20192;-72
2023/08/31 03:48:21;;;;;;;20.52;10.05;;;10.60;99.90;;;;;;4992602;28;20394;-73
2023/08/31 03:50:51;;;;;;;24.48;9.50;;;10.50;99.90;;;;;;4982815;28;20047;-74
2023/08/31 03:53:17;;;;;;;18.05;8.82;;;10.60;99.90;;;;;;4971604;28;20059;-73
2023/08/31 03:55:43;;;;;;;17.92;7.82;;;10.60;99.90;;;;;;4972439;28;20174;-72
2023/08/31 03:58:09;;;;;;;19.55;8.20;;;10.60;99.90;;;;;;4972354;28;20141;-74
2023/08/31 04:00:34;;;;;;;18.23;8.82;;;10.60;99.90;;;;;;4975128;28;20046;-73
2023/08/31 04:03:00;;;;;;;20.77;8.30;;;10.60;99.90;;;;;;4992996;28;20168;-72
2023/08/31 04:05:26;;;;;;;15.63;7.40;;;10.60;99.90;;;;;;4992182;28;20128;-73
2023/08/31 04:07:51;;;;;;;17.63;7.93;;;10.60;99.90;;;;;;4991834;28;20057;-72
2023/08/31 04:10:18;;;;;;;17.75;7.47;;;10.60;99.90;;;;;;4991073;28;20089;-75
2023/08/31 04:12:44;;;;;;;18.33;7.90;;;10.50;99.90;;;;;;4989412;28;20055;-72
2023/08/31 04:15:11;;;;;;;17.30;7.75;;;10.50;99.90;;;;;;4992604;28;20397;-72
2023/08/31 04:17:36;;;;;;;16.15;6.85;;;10.60;99.90;;;;;;4992308;28;20054;-73
2023/08/31 04:20:05;;;;;;;19.55;7.05;;;10.50;99.90;;;;;;4991903;28;20054;-73
2023/08/31 04:22:31;;;;;;;14.95;6.38;;;10.60;99.90;;;;;;4989857;28;20471;-75
2023/08/31 04:24:57;;;;;;;19.90;6.70;;;10.60;99.90;;;;;;4992722;28;20058;-72
2023/08/31 04:27:22;;;;;;;15.43;6.70;;;10.60;99.90;;;;;;4991945;28;20054;-72
2023/08/31 04:29:48;;;;;;;15.40;6.82;;;10.50;99.90;;;;;;4992672;28;20054;-73
2023/08/31 04:32:14;;;;;;;20.15;6.10;;;10.50;99.90;;;;;;4990641;28;20129;-72
2023/08/31 04:34:40;;;;;;;14.40;6.80;;;10.50;99.90;;;;;;4991752;28;20469;-73
2023/08/31 04:37:06;;;;;;;18.30;6.43;;;10.50;99.90;;;;;;4990806;28;20064;-73
2023/08/31 04:39:31;;;;;;;15.32;6.70;;;10.50;99.90;;;;;;4991782;28;20043;-72
2023/08/31 04:41:57;;;;;;;13.48;6.70;;;10.60;99.90;;;;;;4991111;28;20104;-76
2023/08/31 04:44:23;;;;;;;17.17;6.22;;;10.60;99.90;;;;;;4989922;28;20065;-74
2023/08/31 04:46:48;;;;;;;17.13;6.53;;;10.60;99.90;;;;;;4992789;28;20046;-73
2023/08/31 04:49:14;;;;;;;16.65;6.50;;;10.70;99.90;;;;;;4989399;28;20398;-71
2023/08/31 04:51:41;;;;;;;15.73;5.88;;;10.80;99.90;;;;;;4992078;28;20065;-73
2023/08/31 04:54:07;;;;;;;16.70;6.25;;;10.80;99.90;;;;;;4992079;28;20089;-71
2023/08/31 04:56:33;;;;;;;18.90;6.10;;;10.90;99.90;;;;;;4994158;28;20125;-73
2023/08/31 04:59:00;;;;;;;16.63;5.95;;;10.90;99.90;;;;;;4995166;28;20061;-72
2023/08/31 05:01:25;;;;;;;15.35;6.55;;;11.00;99.90;;;;;;4995507;28;20050;-73
2023/08/31 05:03:51;;;;;;;13.82;6.35;;;11.00;99.90;;;;;;4995044;28;20046;-73
2023/08/31 05:06:17;;;;;;;12.40;5.70;;;11.00;99.90;;;;;;4994037;28;20068;-72
2023/08/31 05:08:43;;;;;;;16.58;6.28;;;11.10;99.90;;;;;;4993596;28;20038;-73
2023/08/31 05:11:09;;;;;;;14.70;6.55;;;11.20;99.90;;;;;;4994621;28;20438;-72
2023/08/31 05:13:35;;;;;;;22.83;7.00;;;11.20;99.90;;;;;;4990222;28;20081;-73
2023/08/31 05:16:02;;;;;;;14.68;6.43;;;11.10;99.90;;;;;;4994246;28;20042;-73
2023/08/31 05:18:28;;;;;;;17.65;6.50;;;11.10;99.90;;;;;;4993991;28;20042;-76
2023/08/31 05:20:54;;;;;;;16.38;5.93;;;11.00;99.90;;;;;;4994810;28;20520;-73
2023/08/31 05:23:20;;;;;;;19.05;6.72;;;11.00;99.90;;;;;;4993787;28;20467;-73
2023/08/31 05:25:46;;;;;;;19.75;7.07;;;11.00;99.90;;;;;;4994844;28;20047;-73
2023/08/31 05:28:12;;;;;;;15.70;6.40;;;11.00;99.90;;;;;;4995735;28;20052;-75
2023/08/31 05:30:53;;;;;;;20.25;6.70;;;11.10;99.90;;;;;;4994884;28;20050;-73
2023/08/31 05:33:19;;;;;;;18.30;7.03;;;11.10;99.90;;;;;;4993733;28;20046;-75
2023/08/31 05:35:45;;;;;;;15.40;6.63;;;11.10;99.90;;;;;;4993550;28;20054;-74
2023/08/31 05:38:11;;;;;;;15.40;7.03;;;11.10;99.90;;;;;;4995163;28;20042;-74
2023/08/31 05:40:37;;;;;;;17.25;7.13;;;11.20;99.90;;;;;;4993819;28;20553;-73
2023/08/31 05:43:03;;;;;;;16.45;6.82;;;11.20;99.90;;;;;;4992951;28;20039;-73
2023/08/31 05:45:33;;;;;;;20.42;6.88;;;11.20;99.90;;;;;;4993994;28;20050;-76
2023/08/31 05:47:58;;;;;;;18.23;7.32;;;11.30;99.90;;;;;;4995027;28;20046;-75
2023/08/31 05:50:25;;;;;;;19.20;7.60;;;11.30;99.90;;;;;;4995000;28;20053;-73
2023/08/31 05:52:50;;;;;;;18.83;6.38;;;11.30;99.90;;;;;;4994376;28;20070;-73
2023/08/31 05:55:16;;;;;;;21.90;6.90;;;11.40;99.90;;;;;;4993880;28;20394;-74
2023/08/31 05:57:42;;;;;;;16.27;6.50;;;11.40;99.90;;;;;;4993225;28;20053;-75
2023/08/31 06:00:09;;;;;;;19.20;6.40;;;11.50;99.90;;;;;;4994885;28;20038;-74
2023/08/31 06:02:35;;;;;;;22.60;6.78;;;11.60;99.90;;;;;;4994325;28;20047;-74
2023/08/31 06:05:01;;;;;;;15.15;6.25;;;11.70;99.90;;;;;;4992290;28;20097;-74
2023/08/31 06:07:29;;;;;;;14.95;5.72;;;11.70;99.90;;;;;;4994329;28;20054;-75
2023/08/31 06:09:55;;;;;;;21.77;6.78;;;11.80;99.90;;;;;;4992167;28;20042;-75
2023/08/31 06:12:21;;;;;;;20.83;6.30;;;11.80;99.90;;;;;;4993471;28;20057;-73
2023/08/31 06:14:47;;;;;;;18.60;5.95;;;11.80;99.90;;;;;;4992894;28;20473;-73
2023/08/31 06:17:13;;;;;;;21.80;6.50;;;11.80;99.90;;;;;;4992342;28;20137;-74
2023/08/31 06:19:42;;;;;;;18.73;6.65;;;11.90;99.90;;;;;;4990970;28;20191;-73
2023/08/31 06:22:08;;;;;;;20.05;7.65;;;12.00;99.90;;;;;;4989670;28;20046;-74
2023/08/31 06:24:34;;;;;;;20.95;8.32;;;12.20;99.90;;;;;;4989866;28;20057;-76
2023/08/31 06:27:00;;;;;;;20.23;7.30;;;12.40;99.90;;;;;;4994526;28;20562;-74
2023/08/31 06:29:26;;;;;;;17.63;6.82;;;12.60;99.90;;;;;;4993230;28;20048;-74
2023/08/31 06:31:52;;;;;;;19.23;6.20;;;12.80;99.90;;;;;;4992054;28;20062;-73
2023/08/31 06:34:18;;;;;;;19.02;6.05;;;13.00;99.90;;;;;;4993036;28;20047;-74
2023/08/31 06:36:43;;;;;;;16.65;6.07;;;13.10;99.90;;;;;;4959689;28;20505;-74
2023/08/31 06:39:09;;;;;;;17.00;5.82;;;13.20;99.90;;;;;;4994214;28;20034;-74
2023/08/31 06:41:35;;;;;;;17.70;6.30;;;13.20;99.90;;;;;;4993539;28;20055;-76
2023/08/31 06:44:02;;;;;;;22.80;6.68;;;13.30;99.90;;;;;;4993135;28;20050;-73
2023/08/31 06:46:28;;;;;;;17.85;6.05;;;13.30;99.90;;;;;;4991106;28;20129;-72
2023/08/31 06:48:54;;;;;;;11.33;5.43;;;13.30;99.90;;;;;;4976077;28;20042;-72
2023/08/31 06:51:20;;;;;;;14.30;5.30;;;13.20;99.90;;;;;;4993644;28;20073;-73
2023/08/31 06:53:46;;;;;;;19.85;6.03;;;13.20;99.90;;;;;;4993357;28;20098;-72
2023/08/31 06:56:12;;;;;;;16.87;5.83;;;13.20;99.90;;;;;;4991950;28;20050;-72
2023/08/31 06:58:38;;;;;;;15.30;5.75;;;13.20;99.90;;;;;;4993396;28;20112;-76
2023/08/31 07:01:06;;;;;;;23.20;6.22;;;13.20;99.90;;;;;;4992126;28;20133;-72
2023/08/31 07:03:32;;;;;;;15.85;5.30;;;13.30;99.90;;;;;;4993495;28;20144;-72
2023/08/31 07:05:57;;;;;;;21.48;5.40;;;13.40;99.90;;;;;;4990501;28;20046;-72
2023/08/31 07:08:23;;;;;;;16.55;5.50;;;13.40;99.90;;;;;;4993387;28;20068;-71
2023/08/31 07:10:52;;;;;;;15.05;4.72;;;13.40;99.90;;;;;;4991687;28;20054;-73
2023/08/31 07:13:18;;;;;;;13.75;4.82;;;13.50;99.90;;;;;;4992336;28;20057;-71
2023/08/31 07:15:43;;;;;;;17.95;6.03;;;13.60;99.90;;;;;;4991571;28;20042;-73
2023/08/31 07:18:09;;;;;;;17.20;5.00;;;13.80;99.90;;;;;;4988497;28;20538;-71
2023/08/31 07:20:35;;;;;;;14.48;4.28;;;13.90;99.90;;;;;;4991849;28;20121;-72
2023/08/31 07:23:01;;;;;;;16.02;4.00;;;13.90;99.90;;;;;;4975417;28;20100;-73
2023/08/31 07:25:28;;;;;;;16.45;4.63;;;13.90;99.90;;;;;;4991528;28;20548;-71
2023/08/31 07:27:53;;;;;;;14.07;4.28;;;13.90;99.90;;;;;;4992564;28;20088;-72
2023/08/31 07:30:19;;;;;;;20.27;4.05;;;13.90;99.90;;;;;;4990775;28;20069;-72
2023/08/31 07:32:45;;;;;;;13.82;3.75;;;14.10;99.90;;;;;;4987932;28;20558;-74
2023/08/31 07:35:10;;;;;;;20.80;4.57;;;14.30;99.90;;;;;;4990915;28;20046;-71
2023/08/31 07:37:37;;;;;;;15.85;3.85;;;14.50;99.90;;;;;;4991321;28;20042;-74
2023/08/31 07:40:08;;;;;;;11.60;3.20;;;14.50;99.90;;;;;;4992168;28;20074;-72
2023/08/31 07:42:34;;;;;;;14.05;2.80;;;14.50;99.90;;;;;;4992065;28;20406;-73
2023/08/31 07:45:00;;;;;;;10.20;2.72;;;14.50;99.90;;;;;;4991248;28;20056;-72
2023/08/31 07:47:26;;;;;;;13.45;2.70;;;14.50;99.90;;;;;;4975656;28;20046;-74
2023/08/31 07:49:51;;;;;;;15.85;3.20;;;14.50;99.90;;;;;;4991204;28;20042;-72
2023/08/31 07:52:17;;;;;;;16.08;2.65;;;14.60;99.90;;;;;;4992288;28;20141;-72
2023/08/31 07:54:43;;;;;;;14.45;2.60;;;14.60;99.90;;;;;;4992490;28;20054;-72
2023/08/31 07:57:08;;;;;;;7.93;1.90;;;14.70;99.90;;;;;;4989385;28;20053;-71
2023/08/31 07:59:34;;;;;;;8.57;1.13;;;14.80;99.90;;;;;;4986410;28;20046;-70
2023/08/31 08:02:00;;;;;;;6.55;1.15;;;14.80;99.90;;;;;;4988423;28;20100;-70
2023/08/31 08:04:26;;;;;;;7.25;1.00;;;14.90;99.90;;;;;;4990812;28;20162;-71
2023/08/31 08:06:52;;;;;;;7.38;0.95;;;14.90;99.90;;;;;;4991363;28;20046;-73
2023/08/31 08:09:17;;;;;;;13.27;1.40;;;15.10;99.90;;;;;;4990111;28;20065;-76
2023/08/31 08:11:43;;;;;;;9.07;1.00;;;15.20;99.90;;;;;;4991956;28;20129;-74
2023/08/31 08:14:09;;;;;;;9.55;0.98;;;15.40;99.90;;;;;;4988914;28;20061;-73
2023/08/31 08:16:35;;;;;;;12.00;1.00;;;15.50;99.90;;;;;;4990038;28;20042;-73
2023/08/31 08:19:01;;;;;;;5.22;0.80;;;15.60;99.90;;;;;;4972987;28;20057;-73
2023/08/31 08:21:27;;;;;;;9.77;1.10;;;15.60;99.90;;;;;;4992017;28;20130;-72
2023/08/31 08:23:52;;;;;;;7.38;1.08;;;15.70;99.90;;;;;;4990614;28;20038;-74
2023/08/31 08:26:18;;;;;;;7.97;1.00;;;15.80;99.90;;;;;;4991710;28;20054;-73
2023/08/31 08:28:44;;;;;;;6.40;0.70;;;16.00;99.90;;;;;;4991526;28;20066;-73
2023/08/31 08:31:10;;;;;;;8.02;0.85;;;16.20;99.90;;;;;;4993850;28;20567;-75
2023/08/31 08:33:35;;;;;;;8.38;1.90;;;16.40;99.90;;;;;;4993831;28;20057;-75
2023/08/31 08:36:01;;;;;;;6.70;0.60;;;16.40;99.90;;;;;;4995741;28;20091;-73
2023/08/31 08:38:27;;;;;;;10.02;0.90;;;16.30;99.90;;;;;;4995682;28;20093;-74
2023/08/31 08:40:53;;;;;;;5.40;0.90;;;16.20;99.90;;;;;;4995776;28;20093;-76
2023/08/31 08:43:25;;;;;;;7.83;0.70;;;16.20;99.90;;;;;;4996128;28;20046;-73
2023/08/31 08:45:52;;;;;;;4.95;0.57;;;16.30;99.90;;;;;;4995599;28;20278;-74
2023/08/31 08:48:19;;;;;;;10.18;1.30;;;16.40;99.90;;;;;;4995927;28;20112;-73
2023/08/31 08:50:45;;;;;;;9.43;0.80;;;16.50;99.90;;;;;;4963156;28;20076;-72
2023/08/31 08:53:14;;;;;;;5.47;0.90;;;16.60;99.90;;;;;;4994070;28;20157;-72
2023/08/31 08:55:41;;;;;;;4.05;0.65;;;16.70;99.90;;;;;;4995219;28;20057;-73
2023/08/31 08:58:07;;;;;;;11.73;1.38;;;16.90;99.90;;;;;;4994590;28;20050;-72
2023/08/31 09:00:33;;;;;;;10.68;1.08;;;16.90;99.90;;;;;;4993616;28;20112;-72
2023/08/31 09:03:01;;;;;;;6.20;1.10;;;16.90;99.90;;;;;;4993974;28;20046;-70
2023/08/31 09:05:26;;;;;;;10.38;1.00;;;16.80;99.90;;;;;;4975360;28;20054;-69
2023/08/31 09:08:06;;;;;;;2.95;0.70;;;16.70;99.90;;;;;;4993831;28;20046;-71
2023/08/31 09:10:36;;;;;;;6.00;0.82;;;16.50;99.90;;;;;;4994903;28;20057;-71
2023/08/31 09:13:07;;;;;;;11.23;0.98;;;16.50;99.90;;;;;;4994110;28;20061;-70
2023/08/31 09:15:41;;;;;;;6.43;1.00;;;16.40;99.90;;;;;;4993140;28;20094;-76
2023/08/31 09:18:06;;;;;;;5.22;1.27;;;16.40;99.90;;;;;;4991837;28;20069;-70
2023/08/31 09:20:42;;;;;;;5.90;1.00;;;16.40;99.90;;;;;;4993735;28;20482;-71
2023/08/31 09:23:09;;;;;;;11.07;1.50;;;16.40;99.90;;;;;;4994148;28;20046;-72
2023/08/31 09:25:48;;;;;;;5.38;0.88;;;16.50;99.90;;;;;;4993354;28;20049;-72
2023/08/31 09:28:14;;;;;;;;;;;16.70;99.90;;;;;;4992708;28;20050;-74
2023/08/31 09:30:41;;;;;;;13.00;1.10;;;16.90;99.90;;;;;;4992474;28;19926;-73
2023/08/31 09:33:16;;;;;;;9.07;1.03;;;17.00;99.90;;;;;;4992561;28;20039;-74
2023/08/31 09:35:50;;;;;;;7.85;1.10;;;17.00;99.90;;;;;;4993489;28;20502;-75
2023/08/31 09:38:16;;;;;;;6.60;1.38;;;17.20;99.90;;;;;;4992665;28;20069;-74
2023/08/31 09:40:42;;;;;;;14.90;2.10;;;17.30;99.90;;;;;;4994133;28;20486;-72
2023/08/31 09:43:08;;;;;;;6.82;1.17;;;17.30;99.90;;;;;;4994786;28;20096;-71
2023/08/31 09:45:35;;;;;;;7.93;1.42;;;17.30;99.90;;;;;;4994250;28;20050;-74
2023/08/31 09:48:04;;;;;;;8.52;1.10;;;17.40;99.90;;;;;;4977610;28;20251;-78
2023/08/31 09:50:31;;;;;;;12.45;1.00;;;17.50;99.90;;;;;;4994958;28;20042;-73
2023/08/31 09:53:03;;;;;;;4.88;0.60;;;17.70;99.90;;;;;;4994780;28;20058;-72
2023/08/31 09:55:34;;;;;;;9.50;0.70;;;17.80;99.90;;;;;;4994075;28;20046;-74
2023/08/31 09:58:02;;;;;;;10.82;0.90;;;17.90;99.90;;;;;;4994862;28;20101;-75
2023/08/31 10:00:32;;;;;;;8.05;0.80;;;17.70;99.90;;;;;;4994548;28;20053;-75
2023/08/31 10:03:03;;;;;;;7.70;1.05;;;17.70;99.90;;;;;;4991900;28;20054;-76
2023/08/31 10:05:29;;;;;;;7.45;0.93;;;17.50;99.90;;;;;;4985715;28;20058;-74
2023/08/31 10:07:55;;;;;;;7.95;0.98;;;17.70;99.90;;;;;;4976409;28;20394;-76
2023/08/31 10:10:22;;;;;;;6.73;1.00;;;17.90;99.90;;;;;;4990402;28;20122;-73
2023/08/31 10:12:49;;;;;;;5.82;0.90;;;17.90;99.90;;;;;;4993971;28;20521;-72
2023/08/31 10:15:19;;;;;;;8.82;0.70;;;17.90;99.90;;;;;;4992061;28;20050;-75
2023/08/31 10:17:45;;;;;;;4.72;0.85;;;18.10;99.90;;;;;;4991284;28;20123;-72
2023/08/31 10:20:17;;;;;;;5.78;0.70;;;18.30;99.90;;;;;;4993269;28;20053;-75
2023/08/31 10:22:44;;;;;;;10.02;1.98;;;18.30;99.90;;;;;;4993047;28;20057;-75
2023/08/31 10:25:11;;;;;;;10.90;1.38;;;18.10;99.90;;;;;;4990625;28;20516;-72
2023/08/31 10:27:42;;;;;;;20.30;1.77;;;17.80;99.90;;;;;;4995078;28;20177;-74
2023/08/31 10:30:23;;;;;;;8.18;0.80;;;16.30;99.90;;;;;;4994163;28;20046;-78
2023/08/31 10:33:07;;;;;;;13.65;1.20;;;15.20;99.90;;;;;;4995526;28;20409;-72
2023/08/31 10:35:48;;;;;;;9.05;0.95;;;14.20;99.90;;;;;;4996056;28;20092;-73
2023/08/31 10:38:27;;;;;;;13.82;1.45;;;14.00;99.90;;;;;;4995550;28;20050;-72
2023/08/31 10:41:24;;;;;;;9.57;1.10;;;13.80;99.90;;;;;;4994588;28;20051;-73
2023/08/31 10:43:59;;;;;;;4.95;0.90;;;13.80;99.90;;;;;;4996436;28;20050;-73
2023/08/31 10:46:29;;;;;;;10.13;1.00;;;14.00;99.90;;;;;;4995874;28;20069;-73
2023/08/31 10:49:01;;;;;;;10.27;1.17;;;14.20;99.90;;;;;;4995121;28;20061;-73
2023/08/31 10:51:31;;;;;;;10.20;1.25;;;14.50;99.90;;;;;;4994015;28;20042;-75
2023/08/31 10:54:35;;;;;;;13.93;1.95;;;14.80;99.90;;;;;;4977710;28;20085;-73
2023/08/31 10:57:04;;;;;;;10.38;1.55;;;15.00;99.90;;;;;;4994867;28;20054;-73
2023/08/31 10:59:50;;;;;;;8.88;1.90;;;15.10;99.90;;;;;;4996061;28;20509;-74
2023/08/31 11:02:40;;;;;;;13.15;1.67;;;15.20;99.90;;;;;;4999364;28;20042;-75
2023/08/31 11:05:11;;;;;;;8.05;1.20;;;15.40;99.90;;;;;;5007923;28;20106;-74
2023/08/31 11:07:43;;;;;;;17.92;1.40;;;15.60;99.90;;;;;;5003397;28;20054;-75
2023/08/31 11:10:19;;;;;;;12.20;1.73;;;15.70;99.90;;;;;;4994465;28;20385;-74
2023/08/31 11:12:47;;;;;;;10.55;1.77;;;15.50;99.90;;;;;;4995907;28;20050;-74
2023/08/31 11:15:15;;;;;;;12.73;1.10;;;15.50;99.90;;;;;;4993912;28;20053;-74
2023/08/31 11:17:42;;;;;;;10.00;1.35;;;15.40;99.90;;;;;;4994447;28;20096;-75
2023/08/31 11:20:12;;;;;;;7.13;0.77;;;15.20;99.90;;;;;;4993530;28;20201;-76
2023/08/31 11:22:40;;;;;;;9.40;1.17;;;15.20;99.90;;;;;;4994718;28;20505;-75
2023/08/31 11:25:08;;;;;;;11.48;1.30;;;15.10;99.90;;;;;;4993753;28;20050;-74
2023/08/31 11:27:34;;;;;;;6.63;0.90;;;15.00;99.90;;;;;;4993848;28;20135;-73
2023/08/31 11:30:00;;;;;;;16.63;2.25;;;14.90;99.90;;;;;;4994211;28;20073;-72
2023/08/31 11:32:27;;;;;;;13.75;1.60;;;14.90;99.90;;;;;;4994553;28;20050;-72
2023/08/31 11:34:53;;;;;;;12.82;1.25;;;14.70;99.90;;;;;;4994647;28;20065;-72
2023/08/31 11:37:22;;;;;;;6.78;0.77;;;14.50;99.90;;;;;;4977134;28;20478;-74
2023/08/31 11:39:52;;;;;;;2.42;0.38;;;14.40;99.90;;;;;;4993446;28;20490;-70
2023/08/31 11:42:20;;;;;;;6.32;0.47;;;14.20;99.90;;;;;;4994274;28;20048;-74
2023/08/31 11:44:51;;;;;;;4.68;0.30;;;13.90;99.90;;;;;;4994172;28;20096;-71
2023/08/31 11:47:17;;;;;;;2.92;0.30;;;13.70;99.90;;;;;;4992825;28;20125;-70
2023/08/31 11:49:44;;;;;;;2.05;0.30;;;13.60;99.90;;;;;;4993505;28;20073;-72
2023/08/31 11:52:12;;;;;;;3.05;0.28;;;13.40;99.90;;;;;;4994513;28;20053;-72
2023/08/31 11:54:42;;;;;;;4.18;0.50;;;13.50;99.90;;;;;;4994017;28;20359;-72
2023/08/31 11:57:09;;;;;;;6.47;0.50;;;13.60;99.90;;;;;;4994937;28;20369;-73
2023/08/31 11:59:39;;;;;;;;;;;13.90;99.90;;;;;;4977418;28;20137;-72
2023/08/31 12:02:08;;;;;;;4.85;0.50;;;14.10;99.90;;;;;;4977081;28;19961;-72
2023/08/31 12:04:45;;;;;;;3.17;0.30;;;14.40;99.90;;;;;;4993472;28;20049;-73
2023/08/31 12:07:15;;;;;;;2.45;0.30;;;14.70;99.90;;;;;;4994678;28;20046;-72
2023/08/31 12:09:44;;;;;;;2.85;0.30;;;14.70;99.90;;;;;;4994726;28;20390;-76
2023/08/31 12:12:10;;;;;;;3.45;0.38;;;14.70;99.90;;;;;;4995914;28;20382;-73
2023/08/31 12:14:39;;;;;;;5.25;0.68;;;14.70;99.90;;;;;;4995615;28;20050;-73
2023/08/31 12:17:06;;;;;;;2.72;0.30;;;14.70;99.90;;;;;;5000855;28;20042;-74
2023/08/31 12:19:33;;;;;;;3.80;0.73;;;14.60;99.90;;;;;;4985126;28;20370;-74
2023/08/31 12:21:59;;;;;;;4.47;0.50;;;14.60;99.90;;;;;;4999761;28;20038;-74
2023/08/31 12:24:25;;;;;;;5.38;0.52;;;14.70;99.90;;;;;;4994559;28;20354;-75
2023/08/31 12:26:54;;;;;;;6.50;0.75;;;14.70;99.90;;;;;;4994319;28;20122;-73
2023/08/31 12:29:21;;;;;;;4.05;0.60;;;14.70;99.90;;;;;;4994149;28;20375;-74
2023/08/31 12:31:56;;;;;;;8.48;0.70;;;14.70;99.90;;;;;;4978669;28;20557;-77
2023/08/31 12:34:23;;;;;;;8.38;1.05;;;14.80;99.90;;;;;;4994626;28;20081;-76
2023/08/31 12:36:52;;;;;;;4.28;0.80;;;14.80;99.90;;;;;;4979242;28;20047;-79
2023/08/31 12:39:19;;;;;;;4.53;0.50;;;14.80;99.90;;;;;;4978625;28;20042;-77
2023/08/31 12:41:45;;;;;;;;;;;14.80;99.90;;;;;;4995680;28;20046;-78
2023/08/31 12:44:14;;;;;;;7.25;0.50;;;14.80;99.90;;;;;;4977385;28;19918;-77
2023/08/31 12:46:40;;;;;;;11.57;0.40;;;14.90;99.90;;;;;;4977623;28;20042;-77
2023/08/31 12:49:06;;;;;;;4.22;0.77;;;14.90;99.90;;;;;;4993901;28;20042;-79
2023/08/31 12:51:32;;;;;;;2.53;0.30;;;15.00;99.90;;;;;;4993385;28;20359;-77
2023/08/31 12:53:58;;;;;;;3.10;0.37;;;15.10;99.90;;;;;;4993119;28;20129;-78
2023/08/31 12:56:24;;;;;;;5.00;0.60;;;15.20;99.90;;;;;;4993492;28;20154;-76
2023/08/31 12:58:53;;;;;;;5.82;0.52;;;15.40;99.90;;;;;;4993898;28;20042;-75
2023/08/31 13:01:21;;;;;;;4.47;0.45;;;15.60;99.90;;;;;;4994999;28;20042;-75
2023/08/31 13:03:48;;;;;;;4.43;0.60;;;15.80;99.90;;;;;;4992993;28;20129;-75
2023/08/31 13:06:16;;;;;;;11.03;0.57;;;16.20;99.90;;;;;;4992497;28;20113;-75
2023/08/31 13:08:44;;;;;;;4.32;0.50;;;16.70;99.90;;;;;;4992588;28;20050;-76
2023/08/31 13:11:12;;;;;;;6.00;0.70;;;17.00;99.90;;;;;;4977442;28;20053;-73
2023/08/31 13:13:38;;;;;;;8.20;0.82;;;17.20;99.90;;;;;;4993630;28;20109;-74
2023/08/31 13:16:04;;;;;;;3.27;0.50;;;17.20;99.90;;;;;;4996328;28;20108;-73
2023/08/31 13:18:30;;;;;;;6.43;0.70;;;17.30;99.90;;;;;;4997317;28;20351;-72
2023/08/31 13:20:55;;;;;;;10.20;0.73;;;17.20;99.90;;;;;;4997048;28;20052;-73
2023/08/31 13:23:22;;;;;;;4.75;0.65;;;17.30;99.90;;;;;;4997048;28;20038;-74
2023/08/31 13:25:48;;;;;;;3.72;0.60;;;17.30;99.90;;;;;;4996990;28;20432;-73
2023/08/31 13:28:14;;;;;;;4.63;1.35;;;17.30;99.90;;;;;;4995953;28;20050;-73
2023/08/31 13:30:42;;;;;;;6.10;0.50;;;17.30;99.90;;;;;;4979511;28;20093;-73
2023/08/31 13:33:08;;;;;;;8.45;0.75;;;17.10;99.90;;;;;;4997259;28;20478;-73